createdAt,value
2018-06-02T00:01:51.352Z,101420.97
2018-06-02T00:04:17.499Z,101426.78
2018-06-02T00:06:43.668Z,101422.38
2018-06-02T00:09:09.849Z,101436.17
2018-06-02T00:11:35.989Z,101424.70
2018-06-02T00:14:02.150Z,101430.03
2018-06-02T00:16:28.281Z,101424.73
2018-06-02T00:18:54.407Z,101416.36
2018-06-02T00:21:20.563Z,101427.00
2018-06-02T00:23:46.700Z,101426.17
2018-06-02T00:26:12.872Z,101427.58
2018-06-02T00:28:39.012Z,101434.23
2018-06-02T00:31:05.189Z,101444.45
2018-06-02T00:33:31.333Z,101451.55
2018-06-02T00:35:57.506Z,101455.62
2018-06-02T00:38:23.807Z,101454.78
2018-06-02T00:40:50.121Z,101453.01
2018-06-02T00:43:16.263Z,101451.30
2018-06-02T00:45:42.422Z,101446.41
2018-06-02T00:48:08.592Z,101449.14
2018-06-02T00:50:34.724Z,101444.33
2018-06-02T00:53:01.151Z,101439.47
2018-06-02T00:55:27.295Z,101434.60
2018-06-02T00:57:53.476Z,101438.21
2018-06-02T01:00:19.686Z,101442.20
2018-06-02T01:02:46.061Z,101446.69
2018-06-02T01:05:12.188Z,101442.28
2018-06-02T01:07:38.378Z,101441.88
2018-06-02T01:10:04.527Z,101436.55
2018-06-02T01:12:30.671Z,101437.91
2018-06-02T01:14:56.879Z,101436.19
2018-06-02T01:17:23.058Z,101442.86
2018-06-02T01:19:49.253Z,101440.69
2018-06-02T01:22:15.424Z,101444.69
2018-06-02T01:24:41.612Z,101445.14
2018-06-02T01:27:07.751Z,101448.29
2018-06-02T01:29:33.892Z,101448.72
2018-06-02T01:32:00.065Z,101446.51
2018-06-02T01:34:26.187Z,101442.58
2018-06-02T01:36:52.372Z,101450.13
2018-06-02T01:39:18.517Z,101448.41
2018-06-02T01:41:45.022Z,101450.63
2018-06-02T01:44:11.196Z,101447.09
2018-06-02T01:46:37.340Z,101447.53
2018-06-02T01:49:03.537Z,101444.48
2018-06-02T01:51:29.719Z,101446.27
2018-06-02T01:53:55.886Z,101434.27
2018-06-02T01:56:22.032Z,101451.27
2018-06-02T01:58:48.203Z,101449.94
2018-06-02T02:01:14.347Z,101454.44
2018-06-02T02:03:40.550Z,101456.66
2018-06-02T02:06:06.701Z,101454.05
2018-06-02T02:08:32.850Z,101450.98
2018-06-02T02:10:59.040Z,101443.05
2018-06-02T02:13:25.179Z,101447.94
2018-06-02T02:15:51.328Z,101447.11
2018-06-02T02:18:17.506Z,101453.81
2018-06-02T02:20:43.692Z,101456.04
2018-06-02T02:23:09.843Z,101456.50
2018-06-02T02:25:36.122Z,101462.31
2018-06-02T02:28:02.258Z,101461.88
2018-06-02T02:30:28.390Z,101460.56
2018-06-02T02:32:54.597Z,101461.05
2018-06-02T02:35:20.728Z,101458.46
2018-06-02T02:37:47.176Z,101454.55
2018-06-02T02:40:13.346Z,101456.31
2018-06-02T02:42:39.941Z,101452.34
2018-06-02T02:45:06.073Z,101454.18
2018-06-02T02:47:32.211Z,101457.77
2018-06-02T02:49:58.379Z,101455.58
2018-06-02T02:52:24.512Z,101456.97
2018-06-02T02:54:50.717Z,101463.16
2018-06-02T02:57:16.881Z,101461.91
2018-06-02T02:59:43.033Z,101469.90
2018-06-02T03:02:09.198Z,101461.92
2018-06-02T03:04:35.345Z,101464.56
2018-06-02T03:07:01.830Z,101471.72
2018-06-02T03:09:27.972Z,101481.92
2018-06-02T03:11:54.108Z,101488.14
2018-06-02T03:14:20.285Z,101480.16
2018-06-02T03:16:46.425Z,101478.38
2018-06-02T03:19:12.602Z,101485.86
2018-06-02T03:21:38.742Z,101479.70
2018-06-02T03:24:05.309Z,101481.88
2018-06-02T03:26:31.483Z,101479.63
2018-06-02T03:28:57.629Z,101480.47
2018-06-02T03:31:23.822Z,101473.80
2018-06-02T03:33:50.274Z,101475.08
2018-06-02T03:36:16.512Z,101466.66
2018-06-02T03:38:42.716Z,101474.20
2018-06-02T03:41:08.857Z,101480.40
2018-06-02T03:43:35.021Z,101489.27
2018-06-02T03:46:01.191Z,101495.03
2018-06-02T03:48:27.340Z,101490.61
2018-06-02T03:50:53.481Z,101490.61
2018-06-02T03:53:19.655Z,101494.59
2018-06-02T03:55:46.151Z,101499.48
2018-06-02T03:58:12.292Z,101505.28
2018-06-02T04:00:38.440Z,101511.94
2018-06-02T04:03:04.656Z,101514.62
2018-06-02T04:05:30.792Z,101512.06
2018-06-02T04:07:56.926Z,101512.97
2018-06-02T04:10:23.109Z,101502.33
2018-06-02T04:12:49.287Z,101509.42
2018-06-02T04:15:15.408Z,101507.25
2018-06-02T04:17:43.846Z,101516.07
2018-06-02T04:20:09.989Z,101513.90
2018-06-02T04:22:36.136Z,101511.23
2018-06-02T04:25:02.318Z,101506.76
2018-06-02T04:27:28.694Z,101507.63
2018-06-02T04:29:54.888Z,101509.40
2018-06-02T04:32:21.032Z,101503.16
2018-06-02T04:34:47.167Z,101504.85
2018-06-02T04:37:13.377Z,101509.66
2018-06-02T04:39:39.513Z,101512.25
2018-06-02T04:42:05.682Z,101507.37
2018-06-02T04:44:31.840Z,101502.89
2018-06-02T04:46:58.023Z,101498.31
2018-06-02T04:49:24.202Z,101497.35
2018-06-02T04:51:50.715Z,101511.42
2018-06-02T04:54:16.866Z,101521.55
2018-06-02T04:56:43.018Z,101525.02
2018-06-02T04:59:09.308Z,101518.73
2018-06-02T05:01:35.439Z,101518.17
2018-06-02T05:04:01.583Z,101511.91
2018-06-02T05:06:27.767Z,101517.14
2018-06-02T05:08:53.911Z,101514.81
2018-06-02T05:11:20.093Z,101512.05
2018-06-02T05:13:46.691Z,101517.29
2018-06-02T05:16:12.851Z,101518.49
2018-06-02T05:18:38.970Z,101516.59
2018-06-02T05:21:05.149Z,101513.41
2018-06-02T05:23:31.677Z,101513.77
2018-06-02T05:25:57.821Z,101511.93
2018-06-02T05:28:23.964Z,101514.92
2018-06-02T05:30:50.549Z,101516.62
2018-06-02T05:33:16.953Z,101523.59
2018-06-02T05:35:43.082Z,101528.40
2018-06-02T05:38:09.550Z,101525.30
2018-06-02T05:40:36.227Z,101528.86
2018-06-02T05:43:02.463Z,101530.24
2018-06-02T05:45:28.643Z,101528.98
2018-06-02T05:47:54.844Z,101528.66
2018-06-02T05:50:20.984Z,101542.95
2018-06-02T05:52:47.139Z,101542.23
2018-06-02T05:55:13.317Z,101539.72
2018-06-02T05:57:39.583Z,101535.80
2018-06-02T06:00:05.729Z,101529.19
2018-06-02T06:02:31.864Z,101531.48
2018-06-02T06:04:58.045Z,101541.70
2018-06-02T06:07:24.180Z,101535.50
2018-06-02T06:09:50.359Z,101540.44
2018-06-02T06:12:16.496Z,101544.43
2018-06-02T06:14:42.670Z,101548.50
2018-06-02T06:17:08.842Z,101541.47
2018-06-02T06:19:35.002Z,101553.47
2018-06-02T06:22:01.212Z,101549.60
2018-06-02T06:24:27.365Z,101545.68
2018-06-02T06:26:53.586Z,101549.28
2018-06-02T06:29:19.798Z,101550.18
2018-06-02T06:31:45.993Z,101555.06
2018-06-02T06:34:12.136Z,101555.11
2018-06-02T06:36:38.760Z,101556.02
2018-06-02T06:39:05.012Z,101562.72
2018-06-02T06:41:31.141Z,101561.84
2018-06-02T06:43:57.308Z,101558.28
2018-06-02T06:46:23.492Z,101566.28
2018-06-02T06:48:49.661Z,101565.88
2018-06-02T06:51:16.054Z,101562.34
2018-06-02T06:53:42.190Z,101561.45
2018-06-02T06:56:08.379Z,101556.13
2018-06-02T06:58:34.528Z,101561.02
2018-06-02T07:01:00.676Z,101568.11
2018-06-02T07:03:26.849Z,101574.38
2018-06-02T07:05:53.494Z,101577.55
2018-06-02T07:08:19.652Z,101581.55
2018-06-02T07:10:45.789Z,101589.22
2018-06-02T07:13:12.075Z,101590.16
2018-06-02T07:15:38.230Z,101595.48
2018-06-02T07:18:04.399Z,101606.13
2018-06-02T07:20:30.585Z,101616.33
2018-06-02T07:22:56.727Z,101618.98
2018-06-02T07:25:23.132Z,101610.63
2018-06-02T07:27:49.268Z,101613.72
2018-06-02T07:30:15.540Z,101611.91
2018-06-02T07:32:41.669Z,101617.22
2018-06-02T07:35:08.044Z,101617.27
2018-06-02T07:37:34.264Z,101613.23
2018-06-02T07:40:00.399Z,101607.91
2018-06-02T07:42:26.532Z,101610.11
2018-06-02T07:44:52.735Z,101610.57
2018-06-02T07:47:18.913Z,101606.63
2018-06-02T07:49:45.094Z,101601.31
2018-06-02T07:52:11.291Z,101600.37
2018-06-02T07:54:37.661Z,101598.21
2018-06-02T07:57:03.819Z,101600.92
2018-06-02T07:59:30.365Z,101597.39
2018-06-02T08:01:56.583Z,101595.67
2018-06-02T08:04:22.723Z,101597.44
2018-06-02T08:06:48.899Z,101588.01
2018-06-02T08:09:15.089Z,101594.99
2018-06-02T08:11:41.268Z,101592.24
2018-06-02T08:14:07.425Z,101584.19
2018-06-02T08:16:33.931Z,101590.84
2018-06-02T08:19:01.023Z,101585.98
2018-06-02T08:21:27.173Z,101589.09
2018-06-02T08:23:53.680Z,101596.19
2018-06-02T08:26:19.808Z,101593.06
2018-06-02T08:28:45.988Z,101595.66
2018-06-02T08:31:12.158Z,101591.98
2018-06-02T08:33:38.312Z,101598.08
2018-06-02T08:36:04.481Z,101596.63
2018-06-02T08:38:30.626Z,101601.49
2018-06-02T08:40:56.799Z,101609.04
2018-06-02T08:43:22.931Z,101597.06
2018-06-02T08:45:49.234Z,101601.44
2018-06-02T08:48:15.404Z,101601.73
2018-06-02T08:50:41.547Z,101603.78
2018-06-02T08:53:07.715Z,101603.09
2018-06-02T08:55:33.858Z,101606.81
2018-06-02T08:58:00.322Z,101615.05
2018-06-02T09:00:26.468Z,101618.48
2018-06-02T09:02:52.640Z,101624.61
2018-06-02T09:05:18.844Z,101617.70
2018-06-02T09:07:44.979Z,101622.81
2018-06-02T09:10:11.167Z,101616.39
2018-06-02T09:12:37.299Z,101617.14
2018-06-02T09:15:03.428Z,101612.16
2018-06-02T09:17:29.591Z,101618.61
2018-06-02T09:19:55.731Z,101624.77
2018-06-02T09:22:21.920Z,101620.30
2018-06-02T09:24:48.061Z,101621.13
2018-06-02T09:27:14.249Z,101626.75
2018-06-02T09:29:40.396Z,101619.07
2018-06-02T09:32:06.565Z,101618.05
2018-06-02T09:34:32.989Z,101625.41
2018-06-02T09:36:59.126Z,101625.29
2018-06-02T09:39:25.764Z,101620.22
2018-06-02T09:41:51.909Z,101620.97
2018-06-02T09:44:18.055Z,101625.33
2018-06-02T09:46:44.671Z,101620.77
2018-06-02T09:49:10.813Z,101626.07
2018-06-02T09:51:36.941Z,101626.45
2018-06-02T09:54:03.104Z,101622.89
2018-06-02T09:56:29.609Z,101632.15
2018-06-02T09:58:55.733Z,101624.48
2018-06-02T10:01:21.878Z,101631.53
2018-06-02T10:03:48.077Z,101624.87
2018-06-02T10:06:14.198Z,101627.95
2018-06-02T10:08:40.375Z,101626.87
2018-06-02T10:11:06.551Z,101623.48
2018-06-02T10:13:33.029Z,101619.06
2018-06-02T10:15:59.194Z,101624.16
2018-06-02T10:18:25.328Z,101625.36
2018-06-02T10:20:51.493Z,101621.59
2018-06-02T10:23:18.072Z,101624.13
2018-06-02T10:25:44.207Z,101628.56
2018-06-02T10:28:10.336Z,101633.52
2018-06-02T10:30:36.504Z,101634.87
2018-06-02T10:33:02.653Z,101636.64
2018-06-02T10:35:28.891Z,101635.88
2018-06-02T10:37:54.983Z,101643.00
2018-06-02T10:40:21.165Z,101641.53
2018-06-02T10:42:47.331Z,101642.05
2018-06-02T10:45:13.663Z,101648.45
2018-06-02T10:47:39.830Z,101653.94
2018-06-02T10:50:06.038Z,101658.50
2018-06-02T10:52:32.427Z,101662.14
2018-06-02T10:54:59.041Z,101656.50
2018-06-02T10:57:25.189Z,101656.58
2018-06-02T10:59:51.333Z,101658.34
2018-06-02T11:02:17.500Z,101659.98
2018-06-02T11:04:43.667Z,101654.07
2018-06-02T11:07:09.815Z,101657.48
2018-06-02T11:09:36.000Z,101659.42
2018-06-02T11:12:02.793Z,101667.22
2018-06-02T11:14:29.083Z,101665.06
2018-06-02T11:16:55.591Z,101668.40
2018-06-02T11:19:21.723Z,101676.73
2018-06-02T11:21:48.255Z,101677.52
2018-06-02T11:24:14.433Z,101680.84
2018-06-02T11:26:40.862Z,101681.50
2018-06-02T11:29:07.457Z,101676.37
2018-06-02T11:31:33.961Z,101680.95
2018-06-02T11:34:00.183Z,101678.48
2018-06-02T11:36:26.816Z,101682.62
2018-06-02T11:38:52.996Z,101681.03
2018-06-02T11:41:19.171Z,101674.95
2018-06-02T11:43:45.340Z,101683.90
2018-06-02T11:46:11.678Z,101686.63
2018-06-02T11:48:38.165Z,101683.97
2018-06-02T11:51:04.546Z,101689.72
2018-06-02T11:53:30.684Z,101686.67
2018-06-02T11:55:56.941Z,101684.56
2018-06-02T11:58:23.113Z,101687.30
2018-06-02T12:00:49.286Z,101692.25
2018-06-02T12:03:15.467Z,101691.81
2018-06-02T12:05:41.616Z,101690.42
2018-06-02T12:08:07.793Z,101691.73
2018-06-02T12:10:34.009Z,101690.73
2018-06-02T12:13:00.149Z,101688.84
2018-06-02T12:15:26.293Z,101688.64
2018-06-02T12:17:52.573Z,101691.13
2018-06-02T12:20:18.943Z,101690.16
2018-06-02T12:22:45.071Z,101689.72
2018-06-02T12:25:11.260Z,101695.13
2018-06-02T12:27:37.387Z,101694.37
2018-06-02T12:30:03.731Z,101693.22
2018-06-02T12:32:29.883Z,101690.61
2018-06-02T12:34:56.007Z,101694.66
2018-06-02T12:37:22.207Z,101694.30
2018-06-02T12:39:48.339Z,101698.47
2018-06-02T12:42:14.473Z,101700.33
2018-06-02T12:44:40.664Z,101695.08
2018-06-02T12:47:06.817Z,101696.02
2018-06-02T12:49:33.256Z,101697.02
2018-06-02T12:51:59.405Z,101696.16
2018-06-02T12:54:25.548Z,101700.66
2018-06-02T12:56:52.140Z,101695.83
2018-06-02T12:59:18.293Z,101696.28
2018-06-02T13:01:44.443Z,101693.28
2018-06-02T13:04:10.625Z,101696.09
2018-06-02T13:06:36.853Z,101694.78
2018-06-02T13:09:03.209Z,101700.28
2018-06-02T13:11:29.346Z,101692.05
2018-06-02T13:13:55.503Z,101695.35
2018-06-02T13:16:21.675Z,101695.92
2018-06-02T13:18:47.822Z,101697.81
2018-06-02T13:21:14.040Z,101701.83
2018-06-02T13:23:40.195Z,101697.50
2018-06-02T13:26:06.378Z,101701.58
2018-06-02T13:28:32.632Z,101702.59
2018-06-02T13:30:58.844Z,101709.37
2018-06-02T13:33:24.996Z,101706.34
2018-06-02T13:35:51.171Z,101705.63
2018-06-02T13:38:17.401Z,101706.64
2018-06-02T13:40:43.535Z,101704.51
2018-06-02T13:43:09.676Z,101709.52
2018-06-02T13:45:36.233Z,101709.66
2018-06-02T13:48:02.389Z,101705.34
2018-06-02T13:50:28.788Z,101706.41
2018-06-02T13:52:55.201Z,101706.93
2018-06-02T13:55:21.383Z,101708.43
2018-06-02T13:57:47.663Z,101705.84
2018-06-02T14:00:13.814Z,101707.30
2018-06-02T14:02:39.965Z,101705.59
2018-06-02T14:05:06.144Z,101705.32
2018-06-02T14:07:32.333Z,101709.88
2018-06-02T14:09:58.472Z,101708.67
2018-06-02T14:12:24.650Z,101709.62
2018-06-02T14:14:50.928Z,101704.42
2018-06-02T14:17:17.076Z,101699.62
2018-06-02T14:19:43.208Z,101709.44
2018-06-02T14:22:09.408Z,101706.34
2018-06-02T14:24:35.559Z,101709.94
2018-06-02T14:27:01.735Z,101706.89
2018-06-02T14:29:27.920Z,101703.84
2018-06-02T14:31:54.085Z,101706.08
2018-06-02T14:34:20.252Z,101706.58
2018-06-02T14:36:46.390Z,101703.52
2018-06-02T14:39:12.579Z,101700.86
2018-06-02T14:41:39.233Z,101699.93
2018-06-02T14:44:05.384Z,101695.94
2018-06-02T14:46:31.530Z,101698.08
2018-06-02T14:48:57.799Z,101700.56
2018-06-02T14:51:23.970Z,101690.31
2018-06-02T14:53:50.113Z,101696.52
2018-06-02T14:56:16.822Z,101697.08
2018-06-02T14:58:42.972Z,101698.03
2018-06-02T15:01:09.149Z,101696.81
2018-06-02T15:03:35.445Z,101700.42
2018-06-02T15:06:01.584Z,101692.55
2018-06-02T15:08:27.725Z,101698.78
2018-06-02T15:10:53.903Z,101695.34
2018-06-02T15:13:20.071Z,101702.88
2018-06-02T15:15:46.240Z,101704.67
2018-06-02T15:18:12.383Z,101703.34
2018-06-02T15:20:38.880Z,101709.16
2018-06-02T15:23:05.016Z,101701.67
2018-06-02T15:25:31.439Z,101701.28
2018-06-02T15:27:57.572Z,101699.52
2018-06-02T15:30:23.761Z,101704.45
2018-06-02T15:32:49.901Z,101708.56
2018-06-02T15:35:16.492Z,101705.07
2018-06-02T15:37:42.646Z,101700.70
2018-06-02T15:40:08.790Z,101705.66
2018-06-02T15:42:34.958Z,101703.98
2018-06-02T15:45:01.109Z,101700.02
2018-06-02T15:47:27.685Z,101700.07
2018-06-02T15:49:53.823Z,101703.69
2018-06-02T15:52:20.257Z,101702.35
2018-06-02T15:54:46.429Z,101702.86
2018-06-02T15:57:12.579Z,101698.98
2018-06-02T15:59:38.753Z,101699.89
2018-06-02T16:02:05.471Z,101697.29
2018-06-02T16:04:31.713Z,101702.70
2018-06-02T16:06:57.863Z,101699.23
2018-06-02T16:09:24.107Z,101699.72
2018-06-02T16:11:50.263Z,101707.27
2018-06-02T16:14:16.467Z,101706.44
2018-06-02T16:16:42.720Z,101716.73
2018-06-02T16:19:09.039Z,101713.25
2018-06-02T16:21:35.494Z,101716.36
2018-06-02T16:24:01.832Z,101715.92
2018-06-02T16:26:28.513Z,101716.86
2018-06-02T16:28:54.692Z,101714.22
2018-06-02T16:31:20.936Z,101715.14
2018-06-02T16:33:47.137Z,101714.22
2018-06-02T16:36:13.689Z,101719.06
2018-06-02T16:38:40.028Z,101715.48
2018-06-02T16:41:06.341Z,101711.49
2018-06-02T16:43:32.658Z,101707.50
2018-06-02T16:45:59.075Z,101706.17
2018-06-02T16:48:25.379Z,101706.66
2018-06-02T16:50:51.979Z,101707.10
2018-06-02T16:53:18.163Z,101710.65
2018-06-02T16:55:44.367Z,101708.45
2018-06-02T16:58:10.539Z,101710.66
2018-06-02T17:00:36.840Z,101709.38
2018-06-02T17:03:03.264Z,101713.38
2018-06-02T17:05:29.395Z,101709.89
2018-06-02T17:07:55.852Z,101712.99
2018-06-02T17:10:21.996Z,101715.22
2018-06-02T17:12:48.135Z,101716.09
2018-06-02T17:15:14.308Z,101714.80
2018-06-02T17:17:40.509Z,101717.87
2018-06-02T17:20:06.722Z,101718.37
2018-06-02T17:22:32.823Z,101720.19
2018-06-02T17:24:59.430Z,101721.13
2018-06-02T17:27:25.576Z,101721.14
2018-06-02T17:29:51.721Z,101722.92
2018-06-02T17:32:17.892Z,101727.00
2018-06-02T17:34:44.480Z,101733.66
2018-06-02T17:37:10.599Z,101729.28
2018-06-02T17:39:36.733Z,101729.73
2018-06-02T17:42:02.905Z,101727.56
2018-06-02T17:44:29.554Z,101722.75
2018-06-02T17:46:55.690Z,101725.46
2018-06-02T17:49:21.840Z,101732.16
2018-06-02T17:51:48.066Z,101733.12
2018-06-02T17:54:14.217Z,101733.66
2018-06-02T17:56:40.377Z,101730.62
2018-06-02T17:59:06.588Z,101735.55
2018-06-02T18:01:32.718Z,101736.92
2018-06-02T18:03:58.874Z,101740.48
2018-06-02T18:06:25.039Z,101733.45
2018-06-02T18:08:51.172Z,101733.06
2018-06-02T18:11:17.331Z,101734.84
2018-06-02T18:13:43.915Z,101732.68
2018-06-02T18:16:10.375Z,101737.16
2018-06-02T18:18:36.518Z,101737.21
2018-06-02T18:21:02.930Z,101731.08
2018-06-02T18:23:29.110Z,101735.13
2018-06-02T18:25:55.312Z,101734.30
2018-06-02T18:28:21.704Z,101733.47
2018-06-02T18:30:47.844Z,101738.00
2018-06-02T18:33:14.046Z,101726.09
2018-06-02T18:35:40.189Z,101734.13
2018-06-02T18:38:06.324Z,101729.28
2018-06-02T18:40:32.499Z,101732.42
2018-06-02T18:42:58.632Z,101736.87
2018-06-02T18:45:24.904Z,101732.98
2018-06-02T18:47:51.051Z,101727.28
2018-06-02T18:50:17.193Z,101737.52
2018-06-02T18:52:43.396Z,101733.55
2018-06-02T18:55:09.541Z,101733.60
2018-06-02T18:57:35.727Z,101750.02
2018-06-02T19:00:01.879Z,101756.67
2018-06-02T19:02:28.019Z,101758.05
2018-06-02T19:04:54.186Z,101762.57
2018-06-02T19:07:20.485Z,101764.80
2018-06-02T19:09:46.631Z,101764.02
2018-06-02T19:12:12.789Z,101771.11
2018-06-02T19:14:38.974Z,101766.29
2018-06-02T19:17:05.123Z,101765.00
2018-06-02T19:19:31.648Z,101767.27
2018-06-02T19:21:57.791Z,101768.61
2018-06-02T19:24:23.930Z,101781.93
2018-06-02T19:26:50.085Z,101782.37
2018-06-02T19:29:16.256Z,101785.97
2018-06-02T19:31:42.523Z,101787.35
2018-06-02T19:34:08.900Z,101784.74
2018-06-02T19:36:35.057Z,101787.89
2018-06-02T19:39:01.497Z,101781.72
2018-06-02T19:41:27.901Z,101787.11
2018-06-02T19:43:54.040Z,101788.89
2018-06-02T19:46:20.245Z,101785.84
2018-06-02T19:48:46.468Z,101789.84
2018-06-02T19:51:12.933Z,101798.30
2018-06-02T19:53:39.104Z,101793.92
2018-06-02T19:56:05.520Z,101796.18
2018-06-02T19:58:31.765Z,101795.34
2018-06-02T20:00:58.617Z,101798.94
2018-06-02T20:03:24.788Z,101799.82
2018-06-02T20:05:50.917Z,101802.04
2018-06-02T20:08:17.086Z,101809.17
2018-06-02T20:10:43.229Z,101808.29
2018-06-02T20:13:09.391Z,101806.12
2018-06-02T20:15:35.535Z,101803.52
2018-06-02T20:18:01.736Z,101804.45
2018-06-02T20:20:27.871Z,101811.58
2018-06-02T20:22:53.995Z,101806.72
2018-06-02T20:25:20.194Z,101810.75
2018-06-02T20:27:46.407Z,101805.01
2018-06-02T20:30:12.546Z,101801.96
2018-06-02T20:32:38.727Z,101805.98
2018-06-02T20:35:04.859Z,101809.98
2018-06-02T20:37:31.016Z,101809.14
2018-06-02T20:39:57.180Z,101810.95
2018-06-02T20:42:23.359Z,101807.88
2018-06-02T20:44:56.531Z,101809.20
2018-06-02T20:47:22.668Z,101808.80
2018-06-02T20:49:48.800Z,101807.03
2018-06-02T20:52:14.959Z,101810.18
2018-06-02T20:54:41.119Z,101812.40
2018-06-02T20:57:07.628Z,101813.77
2018-06-02T20:59:33.769Z,101813.33
2018-06-02T21:01:59.907Z,101811.61
2018-06-02T21:04:26.078Z,101811.22
2018-06-02T21:06:52.221Z,101810.32
2018-06-02T21:09:18.496Z,101809.48
2018-06-02T21:11:44.614Z,101811.27
2018-06-02T21:14:10.764Z,101813.48
2018-06-02T21:16:37.197Z,101816.17
2018-06-02T21:19:03.399Z,101811.31
2018-06-02T21:21:29.703Z,101815.30
2018-06-02T21:23:55.834Z,101807.78
2018-06-02T21:26:21.997Z,101807.83
2018-06-02T21:28:48.719Z,101804.34
2018-06-02T21:31:14.864Z,101807.00
2018-06-02T21:33:40.995Z,101809.21
2018-06-02T21:36:07.227Z,101809.25
2018-06-02T21:38:33.356Z,101811.03
2018-06-02T21:40:59.489Z,101812.36
2018-06-02T21:43:25.647Z,101809.75
2018-06-02T21:45:52.187Z,101810.60
2018-06-02T21:48:18.307Z,101815.91
2018-06-02T21:50:44.432Z,101819.90
2018-06-02T21:53:10.614Z,101823.47
2018-06-02T21:55:37.232Z,101813.75
2018-06-02T21:58:03.647Z,101816.41
2018-06-02T22:00:29.788Z,101819.50
2018-06-02T22:02:56.396Z,101823.52
2018-06-02T22:05:22.521Z,101827.95
2018-06-02T22:07:48.701Z,101824.45
2018-06-02T22:10:14.961Z,101835.52
2018-06-02T22:12:41.176Z,101830.66
2018-06-02T22:15:07.550Z,101832.91
2018-06-02T22:17:33.713Z,101828.54
2018-06-02T22:19:59.991Z,101830.75
2018-06-02T22:22:26.129Z,101822.34
2018-06-02T22:24:52.264Z,101825.01
2018-06-02T22:27:18.428Z,101821.07
2018-06-02T22:29:44.567Z,101817.09
2018-06-02T22:32:10.840Z,101817.14
2018-06-02T22:34:37.010Z,101819.80
2018-06-02T22:37:03.117Z,101817.59
2018-06-02T22:39:29.296Z,101818.96
2018-06-02T22:41:55.464Z,101812.78
2018-06-02T22:44:21.648Z,101817.23
2018-06-02T22:46:47.783Z,101815.47
2018-06-02T22:49:13.933Z,101817.25
2018-06-02T22:51:52.288Z,101814.64
2018-06-02T22:54:18.553Z,101810.66
2018-06-02T22:56:45.243Z,101813.31
2018-06-02T22:59:11.443Z,101810.27
2018-06-02T23:01:37.700Z,101815.18
2018-06-02T23:04:03.876Z,101816.06
2018-06-02T23:06:30.077Z,101816.06
2018-06-02T23:08:56.491Z,101820.94
2018-06-02T23:11:22.640Z,101814.34
2018-06-02T23:13:48.764Z,101810.80
2018-06-02T23:16:15.041Z,101811.69
2018-06-02T23:18:41.180Z,101815.22
2018-06-02T23:21:07.320Z,101817.45
2018-06-02T23:23:33.496Z,101815.67
2018-06-02T23:25:59.777Z,101809.53
2018-06-02T23:28:25.907Z,101811.30
2018-06-02T23:30:52.083Z,101811.74
2018-06-02T23:33:18.608Z,101809.53
2018-06-02T23:35:44.749Z,101808.30
2018-06-02T23:38:10.885Z,101814.45
2018-06-02T23:40:37.049Z,101812.73
2018-06-02T23:43:03.218Z,101801.67
2018-06-02T23:45:29.699Z,101811.44
2018-06-02T23:47:55.841Z,101810.11
2018-06-02T23:50:21.964Z,101811.89
2018-06-02T23:52:48.137Z,101814.99
2018-06-02T23:55:14.413Z,101810.61
2018-06-02T23:57:40.592Z,101815.08
